Willows, California
Current Conditions -  °F | °C
As of 3:12 PM on Sunday 21 Dec 2014 (Local Time) from KOVE Reporting Station
Overcast Overcast  
Wind Chill: 62°   Ceiling: 7000
Heat Index: 62°   Visibility: 10mi
Dew Point: 56°   Wind: 6mph
Humidity: 80%   Direction: 170°S
Pressure: 30.25"   Gusts: NA
Location:  39.52°N, 122.19°W
Report Text: KOVE 212312Z AUTO 17005KT 10SM FEW014 SCT026 OVC070 17/13 A3025 RMK AO2 T01670133
Loading
Personal Weather Stations






























Interactive Weather Map New forecast layout! Learn more

10-Day Weather Forecast

Advertisements
Track Severe Weather on mobile